sensor_id;sensor_type;location;lat;lon;timestamp;P1;durP1;ratioP1;P2;durP2;ratioP2
9524;SDS011;15940;48.734;9.112;2022-10-31T00:00:26;5.53;;;3.00;;
9524;SDS011;15940;48.734;9.112;2022-10-31T00:02:53;8.20;;;3.43;;
9524;SDS011;15940;48.734;9.112;2022-10-31T00:05:21;8.07;;;3.43;;
9524;SDS011;15940;48.734;9.112;2022-10-31T00:07:51;7.27;;;3.17;;
9524;SDS011;15940;48.734;9.112;2022-10-31T00:10:19;7.67;;;3.27;;
9524;SDS011;15940;48.734;9.112;2022-10-31T00:12:46;8.97;;;3.20;;
9524;SDS011;15940;48.734;9.112;2022-10-31T00:15:13;5.77;;;3.00;;
9524;SDS011;15940;48.734;9.112;2022-10-31T00:17:40;8.63;;;3.20;;
9524;SDS011;15940;48.734;9.112;2022-10-31T00:20:07;7.67;;;3.43;;
9524;SDS011;15940;48.734;9.112;2022-10-31T00:22:36;6.67;;;3.60;;
9524;SDS011;15940;48.734;9.112;2022-10-31T00:25:03;5.47;;;3.47;;
9524;SDS011;15940;48.734;9.112;2022-10-31T00:27:30;8.73;;;3.63;;
9524;SDS011;15940;48.734;9.112;2022-10-31T00:29:57;7.80;;;3.23;;
9524;SDS011;15940;48.734;9.112;2022-10-31T00:32:24;9.00;;;3.67;;
9524;SDS011;15940;48.734;9.112;2022-10-31T00:34:54;10.83;;;3.33;;
9524;SDS011;15940;48.734;9.112;2022-10-31T00:37:21;6.13;;;3.53;;
9524;SDS011;15940;48.734;9.112;2022-10-31T00:39:49;7.33;;;3.33;;
9524;SDS011;15940;48.734;9.112;2022-10-31T00:42:16;7.63;;;3.80;;
9524;SDS011;15940;48.734;9.112;2022-10-31T00:44:43;10.57;;;3.60;;
9524;SDS011;15940;48.734;9.112;2022-10-31T00:47:10;10.50;;;3.53;;
9524;SDS011;15940;48.734;9.112;2022-10-31T00:49:37;10.33;;;3.80;;
9524;SDS011;15940;48.734;9.112;2022-10-31T00:52:04;6.47;;;3.53;;
9524;SDS011;15940;48.734;9.112;2022-10-31T00:54:31;7.73;;;3.30;;
9524;SDS011;15940;48.734;9.112;2022-10-31T00:56:59;8.63;;;3.60;;
9524;SDS011;15940;48.734;9.112;2022-10-31T00:59:26;6.53;;;3.33;;
9524;SDS011;15940;48.734;9.112;2022-10-31T01:01:53;5.80;;;3.60;;
9524;SDS011;15940;48.734;9.112;2022-10-31T01:06:45;9.20;;;3.30;;
9524;SDS011;15940;48.734;9.112;2022-10-31T01:09:13;7.50;;;3.57;;
9524;SDS011;15940;48.734;9.112;2022-10-31T01:11:40;9.83;;;3.53;;
9524;SDS011;15940;48.734;9.112;2022-10-31T01:14:08;9.17;;;3.20;;
9524;SDS011;15940;48.734;9.112;2022-10-31T01:16:35;8.13;;;3.70;;
9524;SDS011;15940;48.734;9.112;2022-10-31T01:19:02;4.43;;;3.17;;
9524;SDS011;15940;48.734;9.112;2022-10-31T01:21:29;10.73;;;3.63;;
9524;SDS011;15940;48.734;9.112;2022-10-31T01:23:57;6.03;;;3.50;;
9524;SDS011;15940;48.734;9.112;2022-10-31T01:26:27;6.03;;;3.73;;
9524;SDS011;15940;48.734;9.112;2022-10-31T01:28:57;6.17;;;3.40;;
9524;SDS011;15940;48.734;9.112;2022-10-31T01:31:27;8.27;;;3.10;;
9524;SDS011;15940;48.734;9.112;2022-10-31T01:33:56;7.73;;;3.03;;
9524;SDS011;15940;48.734;9.112;2022-10-31T01:36:24;8.97;;;3.27;;
9524;SDS011;15940;48.734;9.112;2022-10-31T01:38:55;5.67;;;3.27;;
9524;SDS011;15940;48.734;9.112;2022-10-31T01:43:59;4.67;;;3.10;;
9524;SDS011;15940;48.734;9.112;2022-10-31T01:46:29;6.97;;;4.00;;
9524;SDS011;15940;48.734;9.112;2022-10-31T01:49:00;6.13;;;3.00;;
9524;SDS011;15940;48.734;9.112;2022-10-31T01:51:32;5.47;;;3.30;;
9524;SDS011;15940;48.734;9.112;2022-10-31T01:54:04;6.67;;;3.23;;
9524;SDS011;15940;48.734;9.112;2022-10-31T01:56:34;9.83;;;3.20;;
9524;SDS011;15940;48.734;9.112;2022-10-31T01:59:09;4.63;;;3.93;;
9524;SDS011;15940;48.734;9.112;2022-10-31T02:01:40;7.73;;;3.43;;
9524;SDS011;15940;48.734;9.112;2022-10-31T02:04:07;6.03;;;3.40;;
9524;SDS011;15940;48.734;9.112;2022-10-31T02:06:36;7.27;;;3.10;;
9524;SDS011;15940;48.734;9.112;2022-10-31T02:09:10;6.87;;;3.13;;
9524;SDS011;15940;48.734;9.112;2022-10-31T02:11:40;7.13;;;3.30;;
9524;SDS011;15940;48.734;9.112;2022-10-31T02:14:09;6.03;;;3.00;;
9524;SDS011;15940;48.734;9.112;2022-10-31T02:16:37;9.73;;;3.40;;
9524;SDS011;15940;48.734;9.112;2022-10-31T02:19:04;7.37;;;3.03;;
9524;SDS011;15940;48.734;9.112;2022-10-31T02:21:39;8.73;;;3.63;;
9524;SDS011;15940;48.734;9.112;2022-10-31T02:24:26;5.83;;;3.30;;
9524;SDS011;15940;48.734;9.112;2022-10-31T02:27:23;4.47;;;3.10;;
9524;SDS011;15940;48.734;9.112;2022-10-31T02:30:08;6.87;;;2.83;;
9524;SDS011;15940;48.734;9.112;2022-10-31T02:32:43;6.33;;;3.30;;
9524;SDS011;15940;48.734;9.112;2022-10-31T02:35:39;5.20;;;3.00;;
9524;SDS011;15940;48.734;9.112;2022-10-31T02:38:19;6.03;;;3.10;;
9524;SDS011;15940;48.734;9.112;2022-10-31T02:40:57;7.60;;;3.27;;
9524;SDS011;15940;48.734;9.112;2022-10-31T02:43:32;5.33;;;3.43;;
9524;SDS011;15940;48.734;9.112;2022-10-31T02:46:11;7.77;;;3.17;;
9524;SDS011;15940;48.734;9.112;2022-10-31T02:48:46;8.40;;;3.50;;
9524;SDS011;15940;48.734;9.112;2022-10-31T02:51:17;6.57;;;3.67;;
9524;SDS011;15940;48.734;9.112;2022-10-31T02:53:44;8.60;;;3.30;;
9524;SDS011;15940;48.734;9.112;2022-10-31T02:56:12;7.67;;;3.50;;
9524;SDS011;15940;48.734;9.112;2022-10-31T02:58:42;8.23;;;3.67;;
9524;SDS011;15940;48.734;9.112;2022-10-31T03:04:27;6.00;;;3.53;;
9524;SDS011;15940;48.734;9.112;2022-10-31T03:07:08;8.13;;;3.60;;
9524;SDS011;15940;48.734;9.112;2022-10-31T03:09:48;11.30;;;3.80;;
9524;SDS011;15940;48.734;9.112;2022-10-31T03:12:22;8.00;;;3.73;;
9524;SDS011;15940;48.734;9.112;2022-10-31T03:14:56;5.90;;;3.37;;
9524;SDS011;15940;48.734;9.112;2022-10-31T03:17:35;6.83;;;3.47;;
9524;SDS011;15940;48.734;9.112;2022-10-31T03:20:08;5.17;;;3.30;;
9524;SDS011;15940;48.734;9.112;2022-10-31T03:22:37;5.60;;;3.50;;
9524;SDS011;15940;48.734;9.112;2022-10-31T03:25:08;7.43;;;3.20;;
9524;SDS011;15940;48.734;9.112;2022-10-31T03:27:35;5.47;;;3.67;;
9524;SDS011;15940;48.734;9.112;2022-10-31T03:30:06;5.67;;;3.43;;
9524;SDS011;15940;48.734;9.112;2022-10-31T03:32:36;7.40;;;3.90;;
9524;SDS011;15940;48.734;9.112;2022-10-31T03:35:10;6.37;;;3.30;;
9524;SDS011;15940;48.734;9.112;2022-10-31T03:37:40;7.37;;;3.73;;
9524;SDS011;15940;48.734;9.112;2022-10-31T03:40:10;4.80;;;3.40;;
9524;SDS011;15940;48.734;9.112;2022-10-31T03:42:39;5.63;;;3.33;;
9524;SDS011;15940;48.734;9.112;2022-10-31T03:45:13;5.17;;;3.43;;
9524;SDS011;15940;48.734;9.112;2022-10-31T03:47:47;8.23;;;3.70;;
9524;SDS011;15940;48.734;9.112;2022-10-31T03:50:15;4.63;;;3.80;;
9524;SDS011;15940;48.734;9.112;2022-10-31T03:52:44;3.97;;;3.30;;
9524;SDS011;15940;48.734;9.112;2022-10-31T03:55:16;6.37;;;3.73;;
9524;SDS011;15940;48.734;9.112;2022-10-31T03:57:48;7.90;;;3.73;;
9524;SDS011;15940;48.734;9.112;2022-10-31T04:00:23;7.00;;;3.30;;
9524;SDS011;15940;48.734;9.112;2022-10-31T04:02:51;5.77;;;3.53;;
9524;SDS011;15940;48.734;9.112;2022-10-31T04:05:25;7.50;;;3.37;;
9524;SDS011;15940;48.734;9.112;2022-10-31T04:07:54;5.87;;;3.13;;
9524;SDS011;15940;48.734;9.112;2022-10-31T04:10:24;10.93;;;3.53;;
9524;SDS011;15940;48.734;9.112;2022-10-31T04:12:54;6.37;;;3.40;;
9524;SDS011;15940;48.734;9.112;2022-10-31T04:15:28;7.13;;;3.13;;
9524;SDS011;15940;48.734;9.112;2022-10-31T04:17:57;6.37;;;3.77;;
9524;SDS011;15940;48.734;9.112;2022-10-31T04:20:31;5.93;;;3.60;;
9524;SDS011;15940;48.734;9.112;2022-10-31T04:22:59;6.47;;;3.53;;
9524;SDS011;15940;48.734;9.112;2022-10-31T04:25:27;8.10;;;3.80;;
9524;SDS011;15940;48.734;9.112;2022-10-31T04:27:54;9.33;;;3.73;;
9524;SDS011;15940;48.734;9.112;2022-10-31T04:30:21;7.30;;;3.90;;
9524;SDS011;15940;48.734;9.112;2022-10-31T04:32:48;5.50;;;3.60;;
9524;SDS011;15940;48.734;9.112;2022-10-31T04:35:15;7.10;;;3.40;;
9524;SDS011;15940;48.734;9.112;2022-10-31T04:37:43;9.93;;;3.60;;
9524;SDS011;15940;48.734;9.112;2022-10-31T04:40:10;5.87;;;3.57;;
9524;SDS011;15940;48.734;9.112;2022-10-31T04:42:37;7.63;;;3.90;;
9524;SDS011;15940;48.734;9.112;2022-10-31T04:45:05;4.57;;;3.43;;
9524;SDS011;15940;48.734;9.112;2022-10-31T04:47:33;5.03;;;3.40;;
9524;SDS011;15940;48.734;9.112;2022-10-31T04:50:00;5.40;;;3.50;;
9524;SDS011;15940;48.734;9.112;2022-10-31T04:52:28;7.93;;;3.33;;
9524;SDS011;15940;48.734;9.112;2022-10-31T04:54:56;5.93;;;3.50;;
9524;SDS011;15940;48.734;9.112;2022-10-31T04:57:23;7.13;;;3.73;;
9524;SDS011;15940;48.734;9.112;2022-10-31T04:59:50;5.77;;;3.37;;
9524;SDS011;15940;48.734;9.112;2022-10-31T05:02:17;6.93;;;3.77;;
9524;SDS011;15940;48.734;9.112;2022-10-31T05:04:44;7.07;;;3.40;;
9524;SDS011;15940;48.734;9.112;2022-10-31T05:07:11;7.57;;;3.40;;
9524;SDS011;15940;48.734;9.112;2022-10-31T05:09:38;7.37;;;3.43;;
9524;SDS011;15940;48.734;9.112;2022-10-31T05:12:06;9.60;;;3.90;;
9524;SDS011;15940;48.734;9.112;2022-10-31T05:14:33;7.23;;;3.67;;
9524;SDS011;15940;48.734;9.112;2022-10-31T05:17:00;7.43;;;4.07;;
9524;SDS011;15940;48.734;9.112;2022-10-31T05:19:27;8.03;;;3.43;;
9524;SDS011;15940;48.734;9.112;2022-10-31T05:21:54;5.40;;;3.60;;
9524;SDS011;15940;48.734;9.112;2022-10-31T05:24:21;9.07;;;4.23;;
9524;SDS011;15940;48.734;9.112;2022-10-31T05:26:48;7.70;;;3.90;;
9524;SDS011;15940;48.734;9.112;2022-10-31T05:29:16;6.70;;;3.73;;
9524;SDS011;15940;48.734;9.112;2022-10-31T05:31:43;7.70;;;3.87;;
9524;SDS011;15940;48.734;9.112;2022-10-31T05:34:10;8.50;;;3.70;;
9524;SDS011;15940;48.734;9.112;2022-10-31T05:36:37;7.13;;;4.00;;
9524;SDS011;15940;48.734;9.112;2022-10-31T05:39:04;7.23;;;3.53;;
9524;SDS011;15940;48.734;9.112;2022-10-31T05:41:31;5.77;;;3.77;;
9524;SDS011;15940;48.734;9.112;2022-10-31T05:43:58;6.43;;;3.80;;
9524;SDS011;15940;48.734;9.112;2022-10-31T05:46:27;6.20;;;3.70;;
9524;SDS011;15940;48.734;9.112;2022-10-31T05:48:53;5.47;;;3.60;;
9524;SDS011;15940;48.734;9.112;2022-10-31T05:51:20;5.80;;;3.70;;
9524;SDS011;15940;48.734;9.112;2022-10-31T05:53:47;8.80;;;3.80;;
9524;SDS011;15940;48.734;9.112;2022-10-31T05:56:14;7.07;;;3.97;;
9524;SDS011;15940;48.734;9.112;2022-10-31T05:58:41;4.57;;;3.70;;
9524;SDS011;15940;48.734;9.112;2022-10-31T06:01:08;8.17;;;3.97;;
9524;SDS011;15940;48.734;9.112;2022-10-31T06:03:36;7.83;;;3.97;;
9524;SDS011;15940;48.734;9.112;2022-10-31T06:06:03;5.30;;;3.80;;
9524;SDS011;15940;48.734;9.112;2022-10-31T06:08:31;4.70;;;3.87;;
9524;SDS011;15940;48.734;9.112;2022-10-31T06:10:58;6.60;;;3.70;;
9524;SDS011;15940;48.734;9.112;2022-10-31T06:13:25;6.17;;;3.67;;
9524;SDS011;15940;48.734;9.112;2022-10-31T06:15:52;6.30;;;4.33;;
9524;SDS011;15940;48.734;9.112;2022-10-31T06:18:19;9.87;;;4.10;;
9524;SDS011;15940;48.734;9.112;2022-10-31T06:20:47;7.43;;;4.30;;
9524;SDS011;15940;48.734;9.112;2022-10-31T06:23:14;9.40;;;3.90;;
9524;SDS011;15940;48.734;9.112;2022-10-31T06:25:41;8.37;;;4.53;;
9524;SDS011;15940;48.734;9.112;2022-10-31T06:28:08;8.17;;;4.17;;
9524;SDS011;15940;48.734;9.112;2022-10-31T06:30:35;10.60;;;4.17;;
9524;SDS011;15940;48.734;9.112;2022-10-31T06:33:02;11.43;;;4.27;;
9524;SDS011;15940;48.734;9.112;2022-10-31T06:35:29;10.60;;;4.63;;
9524;SDS011;15940;48.734;9.112;2022-10-31T06:37:58;10.27;;;4.90;;
9524;SDS011;15940;48.734;9.112;2022-10-31T06:40:25;9.43;;;5.13;;
9524;SDS011;15940;48.734;9.112;2022-10-31T06:42:56;8.43;;;5.17;;
9524;SDS011;15940;48.734;9.112;2022-10-31T06:45:24;6.90;;;4.90;;
9524;SDS011;15940;48.734;9.112;2022-10-31T06:47:51;11.70;;;5.37;;
9524;SDS011;15940;48.734;9.112;2022-10-31T06:50:18;12.40;;;4.77;;
9524;SDS011;15940;48.734;9.112;2022-10-31T06:52:49;7.87;;;4.97;;
9524;SDS011;15940;48.734;9.112;2022-10-31T06:55:18;13.60;;;5.50;;
9524;SDS011;15940;48.734;9.112;2022-10-31T06:57:50;7.33;;;4.67;;
9524;SDS011;15940;48.734;9.112;2022-10-31T07:00:18;7.97;;;4.47;;
9524;SDS011;15940;48.734;9.112;2022-10-31T07:02:52;18.20;;;5.10;;
9524;SDS011;15940;48.734;9.112;2022-10-31T07:05:20;8.73;;;5.10;;
9524;SDS011;15940;48.734;9.112;2022-10-31T07:07:51;9.13;;;4.60;;
9524;SDS011;15940;48.734;9.112;2022-10-31T07:10:20;8.67;;;5.20;;
9524;SDS011;15940;48.734;9.112;2022-10-31T07:12:51;9.53;;;5.00;;
9524;SDS011;15940;48.734;9.112;2022-10-31T07:15:21;13.90;;;5.27;;
9524;SDS011;15940;48.734;9.112;2022-10-31T07:17:48;6.37;;;4.50;;
9524;SDS011;15940;48.734;9.112;2022-10-31T07:20:15;10.47;;;5.20;;
9524;SDS011;15940;48.734;9.112;2022-10-31T07:22:42;7.37;;;4.63;;
9524;SDS011;15940;48.734;9.112;2022-10-31T07:25:09;14.60;;;4.77;;
9524;SDS011;15940;48.734;9.112;2022-10-31T07:27:38;9.67;;;4.50;;
9524;SDS011;15940;48.734;9.112;2022-10-31T07:30:08;11.23;;;5.00;;
9524;SDS011;15940;48.734;9.112;2022-10-31T07:32:37;9.20;;;4.90;;
9524;SDS011;15940;48.734;9.112;2022-10-31T07:35:05;8.30;;;4.13;;
9524;SDS011;15940;48.734;9.112;2022-10-31T07:37:33;7.27;;;4.20;;
9524;SDS011;15940;48.734;9.112;2022-10-31T07:40:00;9.27;;;4.63;;
9524;SDS011;15940;48.734;9.112;2022-10-31T07:42:27;7.47;;;4.27;;
9524;SDS011;15940;48.734;9.112;2022-10-31T07:44:55;6.03;;;4.20;;
9524;SDS011;15940;48.734;9.112;2022-10-31T07:47:22;10.83;;;4.63;;
9524;SDS011;15940;48.734;9.112;2022-10-31T07:49:49;6.07;;;4.37;;
9524;SDS011;15940;48.734;9.112;2022-10-31T07:52:16;5.27;;;3.73;;
9524;SDS011;15940;48.734;9.112;2022-10-31T07:54:43;6.37;;;4.30;;
9524;SDS011;15940;48.734;9.112;2022-10-31T07:57:10;7.77;;;4.20;;
9524;SDS011;15940;48.734;9.112;2022-10-31T07:59:37;10.77;;;4.57;;
9524;SDS011;15940;48.734;9.112;2022-10-31T08:02:07;10.53;;;4.60;;
9524;SDS011;15940;48.734;9.112;2022-10-31T08:04:34;14.87;;;4.23;;
9524;SDS011;15940;48.734;9.112;2022-10-31T08:07:01;8.30;;;4.17;;
9524;SDS011;15940;48.734;9.112;2022-10-31T08:09:28;9.13;;;3.90;;
9524;SDS011;15940;48.734;9.112;2022-10-31T08:11:55;7.83;;;4.00;;
9524;SDS011;15940;48.734;9.112;2022-10-31T08:14:22;7.43;;;3.70;;
9524;SDS011;15940;48.734;9.112;2022-10-31T08:16:49;10.73;;;3.90;;
9524;SDS011;15940;48.734;9.112;2022-10-31T08:19:19;11.93;;;4.33;;
9524;SDS011;15940;48.734;9.112;2022-10-31T08:21:46;7.97;;;3.80;;
9524;SDS011;15940;48.734;9.112;2022-10-31T08:24:17;7.70;;;3.80;;
9524;SDS011;15940;48.734;9.112;2022-10-31T08:26:44;5.27;;;3.33;;
9524;SDS011;15940;48.734;9.112;2022-10-31T08:29:11;5.10;;;3.33;;
9524;SDS011;15940;48.734;9.112;2022-10-31T08:31:39;4.97;;;3.60;;
9524;SDS011;15940;48.734;9.112;2022-10-31T08:34:07;5.30;;;3.80;;
9524;SDS011;15940;48.734;9.112;2022-10-31T08:36:35;9.13;;;3.87;;
9524;SDS011;15940;48.734;9.112;2022-10-31T08:39:02;6.90;;;3.50;;
9524;SDS011;15940;48.734;9.112;2022-10-31T08:41:29;5.93;;;3.90;;
9524;SDS011;15940;48.734;9.112;2022-10-31T08:43:57;7.87;;;4.77;;
9524;SDS011;15940;48.734;9.112;2022-10-31T08:46:24;11.80;;;5.53;;
9524;SDS011;15940;48.734;9.112;2022-10-31T08:48:51;8.70;;;4.50;;
9524;SDS011;15940;48.734;9.112;2022-10-31T08:51:18;10.80;;;5.10;;
9524;SDS011;15940;48.734;9.112;2022-10-31T08:53:46;15.83;;;4.83;;
9524;SDS011;15940;48.734;9.112;2022-10-31T08:56:13;7.10;;;4.00;;
9524;SDS011;15940;48.734;9.112;2022-10-31T08:58:40;6.27;;;4.20;;
9524;SDS011;15940;48.734;9.112;2022-10-31T09:01:07;9.77;;;4.60;;
9524;SDS011;15940;48.734;9.112;2022-10-31T09:03:34;8.17;;;4.70;;
9524;SDS011;15940;48.734;9.112;2022-10-31T09:06:02;10.33;;;4.20;;
9524;SDS011;15940;48.734;9.112;2022-10-31T09:08:33;8.60;;;4.47;;
9524;SDS011;15940;48.734;9.112;2022-10-31T09:11:03;9.97;;;4.90;;
9524;SDS011;15940;48.734;9.112;2022-10-31T09:13:31;24.63;;;11.43;;
9524;SDS011;15940;48.734;9.112;2022-10-31T09:15:58;23.97;;;13.00;;
9524;SDS011;15940;48.734;9.112;2022-10-31T09:18:25;23.50;;;13.57;;
9524;SDS011;15940;48.734;9.112;2022-10-31T09:20:53;16.97;;;9.73;;
9524;SDS011;15940;48.734;9.112;2022-10-31T09:23:23;14.33;;;8.53;;
9524;SDS011;15940;48.734;9.112;2022-10-31T09:25:51;15.03;;;9.97;;
9524;SDS011;15940;48.734;9.112;2022-10-31T09:28:21;16.93;;;9.87;;
9524;SDS011;15940;48.734;9.112;2022-10-31T09:30:50;17.50;;;10.43;;
9524;SDS011;15940;48.734;9.112;2022-10-31T09:33:19;15.43;;;8.87;;
9524;SDS011;15940;48.734;9.112;2022-10-31T09:35:46;14.30;;;8.80;;
9524;SDS011;15940;48.734;9.112;2022-10-31T09:38:14;12.93;;;7.83;;
9524;SDS011;15940;48.734;9.112;2022-10-31T09:40:45;10.67;;;6.40;;
9524;SDS011;15940;48.734;9.112;2022-10-31T09:43:17;13.60;;;6.33;;
9524;SDS011;15940;48.734;9.112;2022-10-31T09:45:56;10.20;;;5.23;;
9524;SDS011;15940;48.734;9.112;2022-10-31T09:48:33;15.53;;;5.63;;
9524;SDS011;15940;48.734;9.112;2022-10-31T09:51:15;9.07;;;4.90;;
9524;SDS011;15940;48.734;9.112;2022-10-31T09:53:48;8.73;;;4.83;;
9524;SDS011;15940;48.734;9.112;2022-10-31T09:56:18;7.40;;;4.40;;
9524;SDS011;15940;48.734;9.112;2022-10-31T09:58:49;8.60;;;4.53;;
9524;SDS011;15940;48.734;9.112;2022-10-31T10:01:25;9.60;;;4.53;;
9524;SDS011;15940;48.734;9.112;2022-10-31T10:04:17;6.20;;;4.47;;
9524;SDS011;15940;48.734;9.112;2022-10-31T10:06:58;8.93;;;4.50;;
9524;SDS011;15940;48.734;9.112;2022-10-31T10:09:27;7.40;;;4.07;;
9524;SDS011;15940;48.734;9.112;2022-10-31T10:11:58;6.67;;;3.90;;
9524;SDS011;15940;48.734;9.112;2022-10-31T10:14:44;7.33;;;4.27;;
9524;SDS011;15940;48.734;9.112;2022-10-31T10:17:32;10.77;;;4.53;;
9524;SDS011;15940;48.734;9.112;2022-10-31T10:20:13;8.20;;;4.10;;
9524;SDS011;15940;48.734;9.112;2022-10-31T10:23:01;10.27;;;4.03;;
9524;SDS011;15940;48.734;9.112;2022-10-31T10:25:49;8.33;;;4.07;;
9524;SDS011;15940;48.734;9.112;2022-10-31T10:28:22;8.30;;;4.10;;
9524;SDS011;15940;48.734;9.112;2022-10-31T10:30:56;9.97;;;4.20;;
9524;SDS011;15940;48.734;9.112;2022-10-31T10:33:30;6.77;;;3.67;;
9524;SDS011;15940;48.734;9.112;2022-10-31T10:36:03;8.00;;;4.20;;
9524;SDS011;15940;48.734;9.112;2022-10-31T10:38:36;9.93;;;4.80;;
9524;SDS011;15940;48.734;9.112;2022-10-31T10:41:12;7.97;;;4.23;;
9524;SDS011;15940;48.734;9.112;2022-10-31T10:43:42;9.87;;;4.23;;
9524;SDS011;15940;48.734;9.112;2022-10-31T10:46:19;7.13;;;4.30;;
9524;SDS011;15940;48.734;9.112;2022-10-31T10:49:12;5.27;;;4.67;;
9524;SDS011;15940;48.734;9.112;2022-10-31T10:51:44;7.37;;;4.20;;
9524;SDS011;15940;48.734;9.112;2022-10-31T10:54:33;9.63;;;4.67;;
9524;SDS011;15940;48.734;9.112;2022-10-31T10:57:25;6.07;;;4.90;;
9524;SDS011;15940;48.734;9.112;2022-10-31T11:00:15;11.33;;;5.20;;
9524;SDS011;15940;48.734;9.112;2022-10-31T11:02:47;6.97;;;4.60;;
9524;SDS011;15940;48.734;9.112;2022-10-31T11:05:19;11.20;;;5.70;;
9524;SDS011;15940;48.734;9.112;2022-10-31T11:07:51;8.27;;;4.90;;
9524;SDS011;15940;48.734;9.112;2022-10-31T11:10:19;7.37;;;5.00;;
9524;SDS011;15940;48.734;9.112;2022-10-31T11:12:56;8.57;;;5.07;;
9524;SDS011;15940;48.734;9.112;2022-10-31T11:15:30;10.47;;;5.53;;
9524;SDS011;15940;48.734;9.112;2022-10-31T11:18:03;8.70;;;5.00;;
9524;SDS011;15940;48.734;9.112;2022-10-31T11:20:32;7.00;;;5.40;;
9524;SDS011;15940;48.734;9.112;2022-10-31T11:23:02;16.57;;;7.10;;
9524;SDS011;15940;48.734;9.112;2022-10-31T11:25:47;12.20;;;5.80;;
9524;SDS011;15940;48.734;9.112;2022-10-31T11:28:16;11.13;;;5.67;;
9524;SDS011;15940;48.734;9.112;2022-10-31T11:30:44;11.77;;;5.30;;
9524;SDS011;15940;48.734;9.112;2022-10-31T11:33:19;11.63;;;5.07;;
9524;SDS011;15940;48.734;9.112;2022-10-31T11:35:52;13.57;;;4.90;;
9524;SDS011;15940;48.734;9.112;2022-10-31T11:38:21;9.30;;;5.20;;
9524;SDS011;15940;48.734;9.112;2022-10-31T11:40:54;10.27;;;4.77;;
9524;SDS011;15940;48.734;9.112;2022-10-31T11:43:25;10.90;;;5.10;;
9524;SDS011;15940;48.734;9.112;2022-10-31T11:45:53;8.07;;;4.87;;
9524;SDS011;15940;48.734;9.112;2022-10-31T11:48:22;11.93;;;5.77;;
9524;SDS011;15940;48.734;9.112;2022-10-31T11:50:51;9.60;;;5.23;;
9524;SDS011;15940;48.734;9.112;2022-10-31T11:53:24;11.03;;;5.10;;
9524;SDS011;15940;48.734;9.112;2022-10-31T11:56:05;10.67;;;4.03;;
9524;SDS011;15940;48.734;9.112;2022-10-31T11:58:39;10.63;;;4.90;;
9524;SDS011;15940;48.734;9.112;2022-10-31T12:01:08;9.20;;;5.53;;
9524;SDS011;15940;48.734;9.112;2022-10-31T12:03:53;15.60;;;5.63;;
9524;SDS011;15940;48.734;9.112;2022-10-31T12:06:31;10.10;;;4.57;;
9524;SDS011;15940;48.734;9.112;2022-10-31T12:09:01;10.40;;;5.23;;
9524;SDS011;15940;48.734;9.112;2022-10-31T12:11:42;12.17;;;5.57;;
9524;SDS011;15940;48.734;9.112;2022-10-31T12:14:27;10.83;;;4.83;;
9524;SDS011;15940;48.734;9.112;2022-10-31T12:17:05;6.10;;;4.37;;
9524;SDS011;15940;48.734;9.112;2022-10-31T12:19:42;9.07;;;4.60;;
9524;SDS011;15940;48.734;9.112;2022-10-31T12:22:22;10.53;;;4.77;;
9524;SDS011;15940;48.734;9.112;2022-10-31T12:25:09;8.30;;;5.00;;
9524;SDS011;15940;48.734;9.112;2022-10-31T12:27:55;9.90;;;5.73;;
9524;SDS011;15940;48.734;9.112;2022-10-31T12:30:36;9.27;;;4.40;;
9524;SDS011;15940;48.734;9.112;2022-10-31T12:33:23;9.87;;;5.17;;
9524;SDS011;15940;48.734;9.112;2022-10-31T12:36:08;10.27;;;5.20;;
9524;SDS011;15940;48.734;9.112;2022-10-31T12:38:58;12.30;;;5.63;;
9524;SDS011;15940;48.734;9.112;2022-10-31T12:41:46;9.60;;;5.20;;
9524;SDS011;15940;48.734;9.112;2022-10-31T12:44:25;7.40;;;5.40;;
9524;SDS011;15940;48.734;9.112;2022-10-31T12:47:17;11.67;;;5.17;;
9524;SDS011;15940;48.734;9.112;2022-10-31T12:50:12;10.87;;;5.10;;
9524;SDS011;15940;48.734;9.112;2022-10-31T12:52:54;15.13;;;5.27;;
9524;SDS011;15940;48.734;9.112;2022-10-31T12:55:38;12.77;;;5.80;;
9524;SDS011;15940;48.734;9.112;2022-10-31T12:58:17;9.17;;;5.57;;
9524;SDS011;15940;48.734;9.112;2022-10-31T13:00:54;12.93;;;5.73;;
9524;SDS011;15940;48.734;9.112;2022-10-31T13:03:35;8.77;;;4.73;;
9524;SDS011;15940;48.734;9.112;2022-10-31T13:06:14;15.40;;;5.03;;
9524;SDS011;15940;48.734;9.112;2022-10-31T13:08:47;14.73;;;5.10;;
9524;SDS011;15940;48.734;9.112;2022-10-31T13:11:20;11.10;;;4.50;;
9524;SDS011;15940;48.734;9.112;2022-10-31T13:13:55;13.37;;;4.97;;
9524;SDS011;15940;48.734;9.112;2022-10-31T13:16:30;6.67;;;4.60;;
9524;SDS011;15940;48.734;9.112;2022-10-31T13:19:02;10.00;;;4.53;;
9524;SDS011;15940;48.734;9.112;2022-10-31T13:21:41;12.27;;;5.33;;
9524;SDS011;15940;48.734;9.112;2022-10-31T13:24:20;8.00;;;4.33;;
9524;SDS011;15940;48.734;9.112;2022-10-31T13:26:54;8.07;;;3.90;;
9524;SDS011;15940;48.734;9.112;2022-10-31T13:29:25;13.37;;;4.63;;
9524;SDS011;15940;48.734;9.112;2022-10-31T13:31:58;8.47;;;4.60;;
9524;SDS011;15940;48.734;9.112;2022-10-31T13:34:27;11.53;;;6.07;;
9524;SDS011;15940;48.734;9.112;2022-10-31T13:37:01;8.57;;;5.20;;
9524;SDS011;15940;48.734;9.112;2022-10-31T13:39:55;10.50;;;4.73;;
9524;SDS011;15940;48.734;9.112;2022-10-31T13:42:41;7.07;;;4.20;;
9524;SDS011;15940;48.734;9.112;2022-10-31T13:45:22;12.03;;;4.50;;
9524;SDS011;15940;48.734;9.112;2022-10-31T13:47:55;11.57;;;4.13;;
9524;SDS011;15940;48.734;9.112;2022-10-31T13:50:25;10.10;;;4.70;;
9524;SDS011;15940;48.734;9.112;2022-10-31T13:53:13;11.83;;;5.30;;
9524;SDS011;15940;48.734;9.112;2022-10-31T13:55:48;7.80;;;4.23;;
9524;SDS011;15940;48.734;9.112;2022-10-31T13:58:28;11.17;;;4.53;;
9524;SDS011;15940;48.734;9.112;2022-10-31T14:00:57;8.53;;;4.80;;
9524;SDS011;15940;48.734;9.112;2022-10-31T14:03:43;8.77;;;4.93;;
9524;SDS011;15940;48.734;9.112;2022-10-31T14:06:21;13.70;;;5.10;;
9524;SDS011;15940;48.734;9.112;2022-10-31T14:09:00;14.03;;;4.57;;
9524;SDS011;15940;48.734;9.112;2022-10-31T14:11:29;11.87;;;5.00;;
9524;SDS011;15940;48.734;9.112;2022-10-31T14:13:57;10.00;;;5.83;;
9524;SDS011;15940;48.734;9.112;2022-10-31T14:16:26;13.93;;;6.70;;
9524;SDS011;15940;48.734;9.112;2022-10-31T14:18:58;12.53;;;6.10;;
9524;SDS011;15940;48.734;9.112;2022-10-31T14:21:28;13.60;;;5.67;;
9524;SDS011;15940;48.734;9.112;2022-10-31T14:23:57;7.43;;;5.60;;
9524;SDS011;15940;48.734;9.112;2022-10-31T14:26:33;10.67;;;5.67;;
9524;SDS011;15940;48.734;9.112;2022-10-31T14:29:20;10.13;;;5.40;;
9524;SDS011;15940;48.734;9.112;2022-10-31T14:31:52;13.10;;;5.70;;
9524;SDS011;15940;48.734;9.112;2022-10-31T14:34:23;7.37;;;4.87;;
9524;SDS011;15940;48.734;9.112;2022-10-31T14:45:59;11.00;;;5.07;;
9524;SDS011;15940;48.734;9.112;2022-10-31T14:48:36;13.07;;;4.97;;
9524;SDS011;15940;48.734;9.112;2022-10-31T14:51:25;10.67;;;4.50;;
9524;SDS011;15940;48.734;9.112;2022-10-31T14:54:00;11.13;;;5.17;;
9524;SDS011;15940;48.734;9.112;2022-10-31T14:56:28;11.93;;;4.57;;
9524;SDS011;15940;48.734;9.112;2022-10-31T14:58:59;7.17;;;4.83;;
9524;SDS011;15940;48.734;9.112;2022-10-31T15:01:32;8.20;;;4.77;;
9524;SDS011;15940;48.734;9.112;2022-10-31T15:04:02;10.97;;;5.27;;
9524;SDS011;15940;48.734;9.112;2022-10-31T15:06:38;8.37;;;4.90;;
9524;SDS011;15940;48.734;9.112;2022-10-31T15:09:20;11.37;;;5.33;;
9524;SDS011;15940;48.734;9.112;2022-10-31T15:11:49;8.33;;;5.07;;
9524;SDS011;15940;48.734;9.112;2022-10-31T15:14:24;13.73;;;5.43;;
9524;SDS011;15940;48.734;9.112;2022-10-31T15:16:55;12.47;;;5.53;;
9524;SDS011;15940;48.734;9.112;2022-10-31T15:19:24;15.10;;;5.40;;
9524;SDS011;15940;48.734;9.112;2022-10-31T15:21:55;8.53;;;5.43;;
9524;SDS011;15940;48.734;9.112;2022-10-31T15:24:24;9.07;;;4.60;;
9524;SDS011;15940;48.734;9.112;2022-10-31T15:27:01;6.70;;;4.73;;
9524;SDS011;15940;48.734;9.112;2022-10-31T15:29:31;10.40;;;4.83;;
9524;SDS011;15940;48.734;9.112;2022-10-31T15:31:58;10.83;;;5.33;;
9524;SDS011;15940;48.734;9.112;2022-10-31T15:34:29;11.93;;;5.00;;
9524;SDS011;15940;48.734;9.112;2022-10-31T15:37:03;7.63;;;5.00;;
9524;SDS011;15940;48.734;9.112;2022-10-31T15:39:31;12.00;;;5.20;;
9524;SDS011;15940;48.734;9.112;2022-10-31T15:41:59;7.50;;;4.63;;